Time;durP1;ratioP1;P1;durP2;ratioP2;P2;SDS_P1;SDS_P2;PMS_P1;PMS_P2;Temp;Humidity;BMP_temperature;BMP_pressure;BME280_temperature;BME280_humidity;BME280_pressure;Samples;Min_cycle;Max_cycle;Signal;HPM_P1;HPM_P2
2023/10/04 00:02:14;;;;;;;25.67;7.23;;;;;;;13.90;53.80;100977.02;124467;1099;104367;-76
2023/10/04 00:04:46;;;;;;;23.13;6.83;;;;;;;13.94;53.78;100976.23;124466;1102;104201;-77
2023/10/04 00:07:18;;;;;;;21.97;7.23;;;;;;;13.99;54.16;100966.73;124383;1099;102156;-76
2023/10/04 00:09:49;;;;;;;25.23;7.57;;;;;;;14.02;53.53;100966.83;124397;1102;101951;-77
2023/10/04 00:12:20;;;;;;;25.17;7.77;;;;;;;14.06;53.73;100961.64;124441;1099;101941;-77
2023/10/04 00:14:52;;;;;;;22.40;7.57;;;;;;;14.08;53.87;100954.66;124480;1102;101933;-77
2023/10/04 00:17:23;;;;;;;24.87;7.67;;;;;;;14.10;53.86;100945.02;124477;1099;104252;-76
2023/10/04 00:19:55;;;;;;;21.87;7.30;;;;;;;14.11;54.18;100952.09;124329;1099;103624;-77
2023/10/04 00:22:26;;;;;;;22.83;7.37;;;;;;;14.13;53.63;100947.75;124723;1099;102325;-78
2023/10/04 00:25:03;;;;;;;26.37;6.90;;;;;;;14.14;53.64;100945.16;124316;1101;104712;-77
2023/10/04 00:27:35;;;;;;;22.03;7.80;;;;;;;14.16;54.15;100942.56;124335;1100;104271;-77
2023/10/04 00:30:11;;;;;;;21.90;7.37;;;;;;;14.15;53.48;100940.80;124363;1102;101955;-77
2023/10/04 00:32:43;;;;;;;21.67;6.73;;;;;;;14.15;54.11;100941.67;124297;1099;104792;-77
2023/10/04 00:35:19;;;;;;;22.43;7.37;;;;;;;14.15;54.29;100944.31;124297;1099;101919;-78
2023/10/04 00:37:55;;;;;;;24.07;7.75;;;;;;;14.16;54.10;100945.20;124356;1099;104204;-77
2023/10/04 00:40:30;;;;;;;23.63;7.30;;;;;;;14.16;54.10;100943.48;124352;1099;101857;-77
2023/10/04 00:43:13;;;;;;;22.33;7.37;;;;;;;14.16;54.48;100946.11;125431;1099;104224;-76
2023/10/04 00:45:48;;;;;;;23.67;7.23;;;;;;;14.16;53.83;100945.20;124274;1102;104185;-77
2023/10/04 00:48:24;;;;;;;26.45;7.55;;;;;;;14.14;53.88;100939.88;124405;1102;104207;-76
2023/10/04 00:50:59;;;;;;;21.33;7.40;;;;;;;14.12;54.56;100944.23;124355;1100;104185;-78
2023/10/04 00:53:30;;;;;;;22.93;6.80;;;;;;;14.10;54.30;100943.30;124506;1099;104285;-77
2023/10/04 00:56:03;;;;;;;19.97;6.93;;;;;;;14.08;53.94;100938.82;124433;1099;102224;-77
2023/10/04 00:58:34;;;;;;;22.37;7.20;;;;;;;14.07;54.34;100940.58;124376;1099;104079;-77
2023/10/04 01:01:06;;;;;;;25.17;7.23;;;;;;;14.04;54.39;100937.84;124565;1100;101922;-77
2023/10/04 01:03:39;;;;;;;24.20;7.80;;;;;;;14.02;53.76;100939.52;124467;1099;101919;-77
2023/10/04 01:06:13;;;;;;;23.50;6.70;;;;;;;14.01;54.25;100933.36;124463;1102;104323;-77
2023/10/04 01:08:43;;;;;;;;;;;;;;;13.98;53.89;100938.55;124536;1102;101993;-77
2023/10/04 01:11:14;;;;;;;22.50;6.90;;;;;;;13.96;54.55;100937.63;124423;1102;102074;-77
2023/10/04 01:13:47;;;;;;;21.60;6.80;;;;;;;13.96;54.30;100934.98;124478;1099;104252;-77
2023/10/04 01:16:23;;;;;;;19.27;7.30;;;;;;;13.97;54.10;100925.31;124549;1099;102025;-77
2023/10/04 01:18:55;;;;;;;24.20;8.50;;;;;;;13.95;54.36;100941.11;124444;1099;101958;-77
2023/10/04 01:21:26;;;;;;;22.90;7.40;;;;;;;13.93;54.33;100924.34;124345;1099;104254;-77
2023/10/04 01:23:57;;;;;;;20.97;7.27;;;;;;;13.92;54.39;100927.83;124319;1099;102095;-77
2023/10/04 01:26:30;;;;;;;24.27;7.70;;;;;;;13.91;54.60;100915.47;124301;1100;102025;-77
2023/10/04 01:29:07;;;;;;;21.87;7.57;;;;;;;13.89;54.33;100917.19;124351;1099;104238;-76
2023/10/04 01:31:39;;;;;;;22.30;7.67;;;;;;;13.89;54.57;100921.58;124504;1102;104176;-77
2023/10/04 01:34:13;;;;;;;22.80;7.47;;;;;;;13.88;55.12;100925.05;124406;1099;102039;-78
2023/10/04 01:36:44;;;;;;;20.37;6.47;;;;;;;13.87;54.38;100913.62;124499;1102;104454;-77
2023/10/04 01:39:19;;;;;;;25.70;7.90;;;;;;;13.86;54.87;100919.73;125444;1099;104198;-77
2023/10/04 01:41:52;;;;;;;21.10;7.20;;;;;;;13.85;54.76;100917.94;124417;1099;101932;-77
2023/10/04 01:44:23;;;;;;;20.93;7.30;;;;;;;13.84;54.96;100917.05;124513;1099;104233;-77
2023/10/04 01:46:56;;;;;;;25.13;7.50;;;;;;;13.82;54.91;100916.13;124563;1102;104205;-76
2023/10/04 01:49:27;;;;;;;21.33;7.67;;;;;;;13.81;55.47;100908.16;124365;1102;102045;-78
2023/10/04 01:51:58;;;;;;;24.00;7.67;;;;;;;13.80;55.09;100906.36;124392;1100;104178;-77
2023/10/04 01:54:30;;;;;;;23.07;7.17;;;;;;;13.78;55.19;100906.31;124434;1099;104169;-77
2023/10/04 01:57:04;;;;;;;24.45;7.80;;;;;;;13.77;55.04;100911.55;124439;1102;101845;-77
2023/10/04 01:59:36;;;;;;;21.57;7.47;;;;;;;13.74;55.22;100909.70;124397;1102;104252;-77
2023/10/04 02:02:09;;;;;;;23.70;7.90;;;;;;;13.72;55.22;100906.14;124366;1099;102820;-77
2023/10/04 02:04:40;;;;;;;20.17;7.30;;;;;;;13.70;55.42;100909.56;124443;1099;104171;-77
2023/10/04 02:07:12;;;;;;;22.40;7.20;;;;;;;13.66;55.36;100901.60;124361;1102;101833;-76
2023/10/04 02:09:43;;;;;;;22.23;7.27;;;;;;;13.65;55.80;100899.80;124359;1102;104263;-76
2023/10/04 02:12:16;;;;;;;21.70;7.00;;;;;;;13.63;55.69;100896.23;124391;1102;104320;-77
2023/10/04 02:14:48;;;;;;;24.00;7.80;;;;;;;13.62;55.75;100893.55;124379;1099;101984;-78
2023/10/04 02:17:22;;;;;;;26.30;7.37;;;;;;;13.60;55.47;100888.23;124514;1099;104060;-77
2023/10/04 02:19:54;;;;;;;23.27;7.83;;;;;;;13.58;55.71;100884.64;124288;1099;101862;-77
2023/10/04 02:22:25;;;;;;;25.07;8.43;;;;;;;13.57;55.80;100887.22;124378;1099;104235;-77
2023/10/04 02:24:57;;;;;;;21.17;7.23;;;;;;;13.54;56.07;100888.05;124309;1102;101953;-77
2023/10/04 02:27:29;;;;;;;26.47;7.47;;;;;;;13.54;56.03;100890.69;124278;1101;104338;-78
2023/10/04 02:30:11;;;;;;;26.33;7.40;;;;;;;13.53;55.73;100893.28;124363;1102;104173;-77
2023/10/04 02:32:45;;;;;;;25.20;6.90;;;;;;;13.52;55.76;100888.84;124381;1102;101942;-77
2023/10/04 02:35:25;;;;;;;21.20;7.03;;;;;;;13.51;56.33;100887.95;124327;1102;104377;-77
2023/10/04 02:38:00;;;;;;;24.53;8.00;;;;;;;13.51;56.03;100889.68;124444;1101;104351;-77
2023/10/04 02:40:32;;;;;;;24.30;7.80;;;;;;;13.50;56.02;100888.80;124567;1102;104086;-77
2023/10/04 02:43:07;;;;;;;22.60;7.57;;;;;;;13.51;56.37;100894.95;124434;1102;104699;-78
2023/10/04 02:45:41;;;;;;;22.47;6.73;;;;;;;13.51;56.75;100890.59;124357;1099;104175;-77
2023/10/04 02:48:13;;;;;;;24.03;7.50;;;;;;;13.53;56.49;100894.16;124479;1102;104251;-77
2023/10/04 02:50:44;;;;;;;20.70;6.90;;;;;;;13.52;56.11;100894.11;124341;1102;102813;-77
2023/10/04 02:53:20;;;;;;;26.37;8.27;;;;;;;13.51;56.10;100884.41;124397;1102;104328;-77
2023/10/04 02:55:54;;;;;;;23.80;7.77;;;;;;;13.51;56.23;100892.31;124319;1102;102118;-78
2023/10/04 02:58:26;;;;;;;24.13;7.23;;;;;;;13.50;57.00;100880.89;124376;1099;101868;-77
2023/10/04 03:00:58;;;;;;;37.67;8.87;;;;;;;13.50;56.36;100885.28;124361;1102;101975;-77
2023/10/04 03:03:31;;;;;;;28.23;7.80;;;;;;;13.50;57.15;100885.28;124364;1102;104201;-77
2023/10/04 03:06:06;;;;;;;23.47;7.40;;;;;;;13.48;56.70;100879.96;124263;1102;104159;-77
2023/10/04 03:08:37;;;;;;;25.00;7.43;;;;;;;13.47;56.42;100876.41;124411;1102;104275;-77
2023/10/04 03:11:11;;;;;;;24.20;8.23;;;;;;;13.44;56.81;100878.06;124371;1102;104274;-77
2023/10/04 03:13:45;;;;;;;23.30;7.27;;;;;;;13.41;56.86;100876.22;124408;1102;101897;-77
2023/10/04 03:16:17;;;;;;;22.65;7.85;;;;;;;13.35;57.15;100877.78;124438;1100;101955;-77
2023/10/04 03:18:49;;;;;;;22.27;7.40;;;;;;;13.32;56.72;100881.17;124299;1101;101980;-76
2023/10/04 03:21:21;;;;;;;25.63;7.87;;;;;;;13.30;57.04;100881.13;124460;1102;102048;-77
2023/10/04 03:23:54;;;;;;;22.27;7.90;;;;;;;13.27;56.80;100878.40;124327;1102;102086;-77
2023/10/04 03:26:25;;;;;;;21.47;7.73;;;;;;;13.25;57.16;100879.22;124325;1102;104166;-76
2023/10/04 03:29:00;;;;;;;23.60;8.07;;;;;;;13.21;57.10;100872.06;124350;1102;104269;-77
2023/10/04 03:31:35;;;;;;;26.02;8.40;;;;;;;13.15;57.00;100872.78;124389;1102;102316;-77
2023/10/04 03:34:09;;;;;;;23.77;7.95;;;;;;;13.11;57.17;100873.52;124566;1102;102007;-77
2023/10/04 03:36:46;;;;;;;25.63;7.57;;;;;;;13.07;56.98;100872.55;124481;1102;104223;-77
2023/10/04 03:39:18;;;;;;;25.40;7.93;;;;;;;13.03;57.41;100867.13;124408;1102;101893;-77
2023/10/04 03:41:50;;;;;;;22.03;7.77;;;;;;;13.03;57.03;100872.39;124628;1102;102006;-77
2023/10/04 03:44:22;;;;;;;24.30;7.70;;;;;;;13.00;57.05;100867.03;124562;1100;102012;-77
2023/10/04 03:46:54;;;;;;;25.03;8.47;;;;;;;12.95;57.16;100865.13;124455;1100;104242;-76
2023/10/04 03:49:26;;;;;;;24.87;7.70;;;;;;;12.92;57.14;100861.52;124367;1102;104246;-77
2023/10/04 03:51:58;;;;;;;25.93;7.90;;;;;;;12.88;57.29;100868.41;124654;1102;104375;-78
2023/10/04 03:54:30;;;;;;;23.23;7.40;;;;;;;12.87;57.41;100866.64;124566;1100;104639;-77
2023/10/04 03:57:06;;;;;;;35.73;8.40;;;;;;;12.90;57.26;100871.09;124395;1102;104169;-77
2023/10/04 03:59:38;;;;;;;27.93;9.60;;;;;;;12.91;57.61;100867.62;124229;1102;104325;-78
2023/10/04 04:02:11;;;;;;;29.23;8.60;;;;;;;12.92;57.11;100877.32;124271;1102;104180;-78
2023/10/04 04:04:42;;;;;;;24.93;8.63;;;;;;;12.94;57.44;100878.25;124557;1102;102057;-77
2023/10/04 04:07:14;;;;;;;30.63;8.50;;;;;;;12.95;57.81;100873.03;124398;1101;104341;-76
2023/10/04 04:09:46;;;;;;;28.47;8.30;;;;;;;12.98;57.74;100873.97;124514;1100;101999;-78
2023/10/04 04:12:17;;;;;;;31.83;7.77;;;;;;;12.98;57.51;100879.23;124364;1102;104223;-76
2023/10/04 04:14:53;;;;;;;27.70;7.90;;;;;;;12.98;57.80;100876.60;124552;1102;101977;-79
2023/10/04 04:17:25;;;;;;;31.30;8.50;;;;;;;12.98;57.92;100872.25;124382;1102;104160;-78
2023/10/04 04:19:57;;;;;;;22.77;8.30;;;;;;;12.99;57.69;100873.12;124609;1102;101964;-79
2023/10/04 04:22:28;;;;;;;22.67;7.47;;;;;;;13.00;57.70;100869.66;124480;1102;101941;-75
2023/10/04 04:25:00;;;;;;;25.90;8.23;;;;;;;12.99;57.93;100871.37;124094;1102;104233;-75
2023/10/04 04:27:32;;;;;;;27.90;8.80;;;;;;;13.02;58.06;100878.50;124438;1102;104230;-78
2023/10/04 04:30:05;;;;;;;30.40;7.93;;;;;;;13.03;57.89;100875.03;124262;1102;104262;-76
2023/10/04 04:32:37;;;;;;;23.95;7.72;;;;;;;13.05;58.28;100875.96;124277;1100;104197;-77
2023/10/04 04:35:15;;;;;;;29.47;8.80;;;;;;;13.06;58.39;100877.77;124441;1102;104269;-78
2023/10/04 04:37:46;;;;;;;24.80;8.07;;;;;;;13.09;58.57;100877.86;124370;1102;102318;-75
2023/10/04 04:40:23;;;;;;;23.83;8.10;;;;;;;13.11;58.32;100877.03;124481;1101;104188;-79
2023/10/04 04:43:01;;;;;;;27.53;8.53;;;;;;;13.11;58.62;100878.79;126046;1102;101948;-78
2023/10/04 04:45:35;;;;;;;23.07;8.30;;;;;;;13.09;58.73;100873.47;124685;1102;101955;-76
2023/10/04 04:48:08;;;;;;;26.07;8.85;;;;;;;13.10;58.68;100875.27;124330;1102;104208;-77
2023/10/04 04:50:39;;;;;;;25.33;8.63;;;;;;;13.11;58.65;100868.25;124457;1102;104232;-78
2023/10/04 04:53:17;;;;;;;25.83;8.20;;;;;;;13.13;58.58;100869.19;124343;1100;102010;-78
2023/10/04 04:55:48;;;;;;;24.53;8.83;;;;;;;13.18;59.00;100867.58;124423;1102;104169;-77
2023/10/04 04:58:22;;;;;;;26.97;8.70;;;;;;;13.24;59.00;100875.67;124657;1102;102244;-77
2023/10/04 05:00:56;;;;;;;23.45;8.10;;;;;;;13.30;58.77;100877.61;125362;1102;101839;-77
2023/10/04 05:03:29;;;;;;;26.83;8.20;;;;;;;13.34;58.98;100876.91;124464;1102;101941;-79
2023/10/04 05:06:01;;;;;;;27.77;8.13;;;;;;;13.40;58.63;100879.73;124825;1102;101766;-78
2023/10/04 05:08:33;;;;;;;24.10;8.23;;;;;;;13.46;58.99;100879.91;124810;1102;104239;-78
2023/10/04 05:11:07;;;;;;;25.13;8.53;;;;;;;13.51;59.13;100880.05;124796;1101;102129;-78
2023/10/04 05:13:39;;;;;;;28.20;8.60;;;;;;;13.56;59.52;100880.19;126023;1101;101755;-78
2023/10/04 05:16:11;;;;;;;27.10;7.90;;;;;;;13.61;59.32;100878.56;124725;1102;104269;-78
2023/10/04 05:18:44;;;;;;;28.30;9.03;;;;;;;13.65;58.95;100891.00;124943;1102;104249;-79
2023/10/04 05:21:16;;;;;;;28.30;8.83;;;;;;;13.72;59.07;100887.68;125751;1100;104227;-77
2023/10/04 05:23:47;;;;;;;27.77;8.87;;;;;;;13.76;59.59;100886.93;124775;1099;104479;-76
2023/10/04 05:26:19;;;;;;;26.67;8.33;;;;;;;13.82;59.51;100887.11;124764;1099;102034;-77
2023/10/04 05:28:52;;;;;;;22.97;8.40;;;;;;;13.90;59.25;100891.69;124871;1099;104635;-81
2023/10/04 05:31:24;;;;;;;27.13;9.30;;;;;;;13.97;60.15;100891.02;124361;1102;104345;-76
2023/10/04 05:33:55;;;;;;;23.70;8.90;;;;;;;14.03;59.14;100896.47;124678;1102;104178;-78
2023/10/04 05:36:26;;;;;;;26.87;9.10;;;;;;;14.09;60.16;100899.28;124654;1102;102311;-81
2023/10/04 05:39:01;;;;;;;24.45;8.25;;;;;;;14.16;59.44;100901.25;124187;1099;102228;-76
2023/10/04 05:41:33;;;;;;;24.67;8.40;;;;;;;14.26;59.56;100907.66;124333;1099;104331;-76
2023/10/04 05:44:09;;;;;;;23.73;8.77;;;;;;;14.35;59.81;100902.63;124268;1099;104350;-76
2023/10/04 05:46:47;;;;;;;27.43;7.97;;;;;;;14.46;59.85;100907.28;124338;1102;101932;-78
2023/10/04 05:49:18;;;;;;;25.07;8.57;;;;;;;14.56;59.21;100899.64;124723;1099;104220;-80
2023/10/04 05:51:55;;;;;;;24.40;8.67;;;;;;;14.63;59.73;100913.95;124562;1102;104306;-79
2023/10/04 05:54:27;;;;;;;22.83;7.60;;;;;;;14.70;60.27;100921.16;124759;1102;104197;-77
2023/10/04 05:57:07;;;;;;;23.70;8.10;;;;;;;14.80;59.37;100913.47;124743;1102;104309;-76
2023/10/04 05:59:38;;;;;;;27.20;8.30;;;;;;;14.86;60.19;100919.79;124192;1102;104179;-74
2023/10/04 06:02:12;;;;;;;27.83;8.77;;;;;;;14.93;59.79;100934.07;125041;1102;104211;-75
2023/10/04 06:04:44;;;;;;;26.77;8.23;;;;;;;15.05;59.46;100929.09;124113;1101;104320;-74
2023/10/04 06:07:15;;;;;;;21.87;7.40;;;;;;;15.17;60.35;100936.41;124225;1100;104175;-75
2023/10/04 06:09:47;;;;;;;25.87;8.07;;;;;;;15.24;60.10;100933.06;124230;1102;104220;-74
2023/10/04 06:12:20;;;;;;;22.83;7.53;;;;;;;15.33;59.74;100942.94;124189;1102;101929;-73
2023/10/04 06:17:45;;;;;;;22.37;7.50;;;;;;;15.50;59.32;100953.02;124282;1102;104198;-74
2023/10/04 06:20:27;;;;;;;23.53;8.63;;;;;;;15.54;59.51;100942.55;124164;1102;104255;-73
2023/10/04 06:23:09;;;;;;;26.23;7.93;;;;;;;15.63;59.02;100939.23;124132;1102;104220;-73
2023/10/04 06:25:49;;;;;;;23.03;7.20;;;;;;;15.69;59.71;100949.94;124146;1102;104676;-74
2023/10/04 06:28:28;;;;;;;22.43;7.67;;;;;;;15.77;59.79;100952.80;124412;1102;103376;-75
2023/10/04 06:31:06;;;;;;;24.65;7.83;;;;;;;15.85;59.20;100958.22;124308;1102;102165;-74
2023/10/04 06:33:42;;;;;;;23.17;7.57;;;;;;;15.93;59.02;100957.53;125596;1101;103356;-76
2023/10/04 06:36:29;;;;;;;23.00;7.60;;;;;;;16.02;58.58;100943.61;124269;1102;104229;-76
2023/10/04 06:39:06;;;;;;;23.33;7.97;;;;;;;16.13;58.66;100946.48;125058;1102;104255;-73
2023/10/04 06:41:38;;;;;;;24.53;7.93;;;;;;;16.24;58.59;100947.57;124197;1102;117819;-75
2023/10/04 06:44:14;;;;;;;22.20;7.37;;;;;;;16.38;58.56;100942.55;124590;1102;102064;-75
2023/10/04 06:46:47;;;;;;;23.07;8.10;;;;;;;16.49;58.70;100951.58;124196;1102;104165;-74
2023/10/04 06:49:18;;;;;;;24.20;7.78;;;;;;;16.60;58.95;100950.89;124167;1102;104326;-73
2023/10/04 06:51:51;;;;;;;20.83;7.57;;;;;;;16.72;58.80;100948.47;124994;1102;102132;-73
2023/10/04 06:54:23;;;;;;;22.23;7.80;;;;;;;16.84;58.80;100953.98;124151;1102;104252;-72
2023/10/04 06:56:55;;;;;;;22.90;8.20;;;;;;;16.96;58.50;100957.73;124095;1102;104368;-72
2023/10/04 06:59:26;;;;;;;24.50;8.43;;;;;;;17.06;57.85;100971.17;124108;1100;104288;-71
2023/10/04 07:02:03;;;;;;;27.60;8.10;;;;;;;17.16;57.91;100969.55;124154;1099;104172;-75
2023/10/04 07:04:35;;;;;;;27.35;8.10;;;;;;;17.27;58.07;100961.77;124139;1102;101895;-73
2023/10/04 07:07:10;;;;;;;21.37;7.67;;;;;;;17.36;57.33;100966.34;124264;1102;104338;-74
2023/10/04 07:09:42;;;;;;;25.33;8.33;;;;;;;17.45;57.35;100958.48;124307;1099;104185;-71
2023/10/04 07:12:13;;;;;;;25.10;7.47;;;;;;;17.54;57.27;100953.31;124237;1100;104163;-75
2023/10/04 07:14:45;;;;;;;23.33;8.20;;;;;;;17.65;56.80;100947.28;124267;1102;104333;-77
2023/10/04 07:17:19;;;;;;;23.40;8.77;;;;;;;17.74;56.87;100940.33;124288;1102;101858;-73
2023/10/04 07:19:52;;;;;;;22.43;8.13;;;;;;;17.81;56.72;100936.02;124185;1102;104236;-74
2023/10/04 07:22:29;;;;;;;24.23;7.93;;;;;;;17.89;56.55;100944.11;124197;1099;104238;-74
2023/10/04 07:25:07;;;;;;;23.73;7.87;;;;;;;17.94;56.35;100939.74;124198;1102;104306;-74
2023/10/04 07:27:41;;;;;;;24.27;8.10;;;;;;;18.02;56.11;100929.22;124355;1099;102300;-74
2023/10/04 07:30:19;;;;;;;19.00;7.20;;;;;;;18.12;56.07;100936.39;124309;1099;104272;-77
2023/10/04 07:32:52;;;;;;;21.25;8.05;;;;;;;18.21;56.02;100933.84;124285;1102;118671;-74
2023/10/04 07:35:28;;;;;;;23.63;7.33;;;;;;;18.29;55.90;100929.53;124185;1102;102066;-75
2023/10/04 07:38:05;;;;;;;23.53;8.63;;;;;;;18.37;56.28;100931.36;124205;1102;104230;-76
2023/10/04 07:40:40;;;;;;;28.42;8.35;;;;;;;18.48;55.31;100932.36;124464;1102;104265;-76
2023/10/04 07:43:13;;;;;;;18.60;7.43;;;;;;;18.58;55.37;100934.24;124269;1099;104286;-76
2023/10/04 07:45:46;;;;;;;20.03;8.00;;;;;;;18.67;55.29;100929.02;124259;1100;104197;-75
2023/10/04 07:48:18;;;;;;;20.73;8.00;;;;;;;18.76;55.17;100932.63;124242;1100;101922;-75
2023/10/04 07:50:52;;;;;;;21.53;7.43;;;;;;;18.84;55.02;100933.61;124209;1102;104268;-76
2023/10/04 07:53:25;;;;;;;21.83;8.10;;;;;;;18.95;54.73;100942.59;124214;1102;104331;-73
2023/10/04 07:56:00;;;;;;;20.50;7.90;;;;;;;19.02;54.56;100938.20;124287;1102;101842;-74
2023/10/04 07:58:32;;;;;;;23.00;7.53;;;;;;;19.12;54.13;100931.17;124212;1102;104204;-75
2023/10/04 08:01:09;;;;;;;23.07;7.37;;;;;;;19.17;53.69;100926.80;124176;1102;101983;-74
2023/10/04 08:03:41;;;;;;;20.63;7.90;;;;;;;19.28;53.14;100925.09;124257;1099;102510;-74
2023/10/04 08:06:18;;;;;;;20.80;7.50;;;;;;;19.38;53.34;100926.95;124222;1102;102033;-74
2023/10/04 08:08:53;;;;;;;18.57;7.62;;;;;;;19.48;53.15;100929.67;124212;1099;104242;-75
2023/10/04 08:11:32;;;;;;;21.73;7.73;;;;;;;19.55;53.23;100924.36;124211;1102;104307;-77
2023/10/04 08:14:07;;;;;;;18.93;7.53;;;;;;;19.67;52.59;100925.33;124148;1102;106862;-74
2023/10/04 08:16:41;;;;;;;19.67;7.13;;;;;;;19.74;52.41;100928.03;124198;1102;103944;-76
2023/10/04 08:19:16;;;;;;;20.70;7.40;;;;;;;19.83;51.83;100926.31;124154;1101;104254;-73
2023/10/04 08:21:48;;;;;;;22.97;7.73;;;;;;;19.90;51.75;100928.14;124292;1102;104277;-75
2023/10/04 08:24:22;;;;;;;20.27;7.60;;;;;;;20.00;52.19;100921.95;124233;1099;118782;-74
2023/10/04 08:26:54;;;;;;;19.20;7.50;;;;;;;20.15;51.49;100914.87;124214;1102;104377;-76
2023/10/04 08:29:26;;;;;;;19.90;7.50;;;;;;;20.27;52.05;100920.24;124283;1099;103626;-75
2023/10/04 08:31:59;;;;;;;19.13;7.13;;;;;;;20.35;51.07;100907.84;124241;1102;104259;-72
2023/10/04 08:34:32;;;;;;;19.07;7.00;;;;;;;20.45;51.15;100904.29;124275;1102;102725;-73
2023/10/04 08:37:04;;;;;;;20.87;7.77;;;;;;;20.60;51.63;100908.77;124314;1102;102176;-72
2023/10/04 08:39:40;;;;;;;20.80;8.20;;;;;;;20.75;50.62;100909.69;124224;1102;103672;-74
2023/10/04 08:42:13;;;;;;;23.70;7.93;;;;;;;20.89;50.78;100907.02;125262;1102;104242;-72
2023/10/04 08:44:44;;;;;;;22.07;7.17;;;;;;;20.99;49.97;100909.69;124067;1099;112946;-71
2023/10/04 08:47:17;;;;;;;16.93;7.13;;;;;;;21.06;50.42;100913.23;124116;1099;104248;-73
2023/10/04 08:49:55;;;;;;;20.97;7.30;;;;;;;21.14;50.22;100924.77;124111;1099;104156;-73
2023/10/04 08:52:38;;;;;;;21.07;7.43;;;;;;;21.26;49.95;100929.22;124165;1102;104271;-71
2023/10/04 08:55:16;;;;;;;18.07;6.93;;;;;;;21.36;49.68;100935.42;124228;1102;104184;-72
2023/10/04 08:57:53;;;;;;;21.57;7.57;;;;;;;21.38;49.08;100936.33;124161;1102;104082;-75
2023/10/04 09:00:29;;;;;;;23.53;7.40;;;;;;;21.42;49.01;100934.53;124225;1102;104286;-73
2023/10/04 09:03:01;;;;;;;24.77;7.27;;;;;;;21.46;49.12;100939.86;124260;1102;104175;-74
2023/10/04 09:05:46;;;;;;;22.13;7.50;;;;;;;21.49;49.30;100931.88;124104;1100;104169;-72
2023/10/04 09:08:19;;;;;;;19.47;7.80;;;;;;;21.56;48.60;100929.20;124139;1102;104258;-74
2023/10/04 09:10:54;;;;;;;26.73;7.40;;;;;;;21.62;48.38;100940.73;124152;1102;104287;-73
2023/10/04 09:13:26;;;;;;;22.83;7.17;;;;;;;21.65;47.65;100950.53;124128;1101;104240;-73
2023/10/04 09:15:58;;;;;;;20.53;7.00;;;;;;;21.64;48.23;100943.41;124082;1101;104248;-72
2023/10/04 09:18:42;;;;;;;24.73;7.07;;;;;;;21.70;48.19;100943.39;125538;1101;102199;-74
2023/10/04 09:21:21;;;;;;;21.00;7.40;;;;;;;21.76;47.20;100946.04;124387;1102;104201;-73
2023/10/04 09:24:11;;;;;;;20.33;7.60;;;;;;;21.78;47.14;100946.03;124288;1102;102196;-73
2023/10/04 09:26:58;;;;;;;20.40;7.27;;;;;;;21.83;46.89;100939.80;124291;1102;104233;-73
2023/10/04 09:29:35;;;;;;;18.83;7.37;;;;;;;21.90;46.95;100940.65;124204;1102;104246;-72
2023/10/04 09:32:11;;;;;;;20.67;7.37;;;;;;;21.95;47.33;100935.29;124092;1099;104306;-72
2023/10/04 09:34:55;;;;;;;19.13;7.00;;;;;;;21.99;46.46;100929.05;124231;1102;104057;-72
2023/10/04 09:37:27;;;;;;;19.53;7.53;;;;;;;22.05;46.08;100937.91;124113;1102;104245;-72
2023/10/04 09:40:12;;;;;;;23.23;7.77;;;;;;;22.11;46.39;100938.77;124137;1102;104335;-73
2023/10/04 09:42:52;;;;;;;18.03;6.73;;;;;;;22.13;45.97;100932.53;124101;1102;104283;-72
2023/10/04 09:45:24;;;;;;;21.20;7.67;;;;;;;22.20;45.55;100942.27;124220;1102;104172;-73
2023/10/04 09:47:56;;;;;;;20.73;6.87;;;;;;;22.23;44.88;100939.59;124363;1102;104173;-72
2023/10/04 09:50:28;;;;;;;20.87;7.03;;;;;;;22.32;45.52;100943.16;124234;1102;104181;-72
2023/10/04 09:53:01;;;;;;;17.45;6.65;;;;;;;22.36;44.95;100945.81;124130;1102;104245;-71
2023/10/04 09:55:36;;;;;;;18.83;6.33;;;;;;;22.37;44.44;100946.69;124128;1099;104235;-73
2023/10/04 09:58:23;;;;;;;21.67;7.27;;;;;;;22.37;44.77;100947.56;124133;1099;104249;-74
2023/10/04 10:01:04;;;;;;;17.10;6.27;;;;;;;22.45;44.97;100942.17;124104;1099;104243;-73
2023/10/04 10:03:48;;;;;;;20.75;7.45;;;;;;;22.52;44.61;100938.57;124132;1102;102508;-75
2023/10/04 10:06:24;;;;;;;17.47;6.73;;;;;;;22.63;44.39;100929.59;124097;1102;104288;-73
2023/10/04 10:08:59;;;;;;;18.87;6.80;;;;;;;22.73;44.21;100917.91;124174;1102;104361;-72
2023/10/04 10:11:35;;;;;;;18.77;6.53;;;;;;;22.86;43.62;100930.30;124119;1102;104386;-73
2023/10/04 10:14:11;;;;;;;19.37;6.50;;;;;;;22.89;44.01;100919.58;124766;1102;104262;-72
2023/10/04 10:16:52;;;;;;;21.67;7.33;;;;;;;22.96;44.02;100933.78;124131;1099;104269;-73
2023/10/04 10:19:43;;;;;;;18.73;7.30;;;;;;;23.02;43.57;100927.50;124243;1102;104159;-76
2023/10/04 10:22:21;;;;;;;20.63;6.90;;;;;;;23.02;43.16;100916.80;124180;1102;104169;-75
2023/10/04 10:25:14;;;;;;;;;;;;;;;23.08;42.28;100919.41;124183;1102;101824;-75
2023/10/04 10:27:49;;;;;;;17.80;6.60;;;;;;;23.14;43.03;100922.06;124296;1102;104277;-77
2023/10/04 10:30:33;;;;;;;19.10;7.10;;;;;;;23.21;43.07;100910.38;124233;1102;103596;-77
2023/10/04 10:33:13;;;;;;;21.10;7.05;;;;;;;23.24;42.83;100915.70;125736;1101;101893;-78
2023/10/04 10:35:59;;;;;;;22.57;6.80;;;;;;;23.33;43.02;100912.05;124613;1102;104405;-78
2023/10/04 10:38:48;;;;;;;19.13;6.63;;;;;;;23.41;42.99;100910.17;124571;1102;104395;-79
2023/10/04 10:42:11;;;;;;;16.00;6.50;;;;;;;23.51;43.13;100911.86;124946;1100;104337;-78
2023/10/04 10:44:52;;;;;;;16.00;6.50;;;;;;;23.66;42.60;100894.70;125655;1101;102308;-76
2023/10/04 10:47:26;;;;;;;19.60;6.80;;;;;;;23.75;42.27;100895.48;124512;1102;104214;-79
2023/10/04 10:50:01;;;;;;;15.97;5.70;;;;;;;23.80;42.53;100890.98;124497;1102;104188;-77
2023/10/04 10:52:41;;;;;;;20.43;6.37;;;;;;;23.90;41.89;100889.97;124188;1102;104259;-76
2023/10/04 10:55:27;;;;;;;16.90;6.17;;;;;;;23.98;42.12;100892.55;124480;1102;104139;-74
2023/10/04 10:58:02;;;;;;;16.33;5.67;;;;;;;24.10;41.74;100899.55;124201;1102;112066;-74
2023/10/04 11:00:38;;;;;;;14.10;5.70;;;;;;;24.15;41.69;100885.17;125654;1100;103488;-75
2023/10/04 11:03:13;;;;;;;13.60;5.63;;;;;;;24.22;41.53;100884.16;124312;1102;102309;-74
2023/10/04 11:05:48;;;;;;;16.03;5.97;;;;;;;24.31;41.49;100884.92;124235;1102;104431;-76
2023/10/04 11:08:22;;;;;;;16.67;5.47;;;;;;;24.38;41.09;100891.98;124216;1102;104182;-76
2023/10/04 11:10:55;;;;;;;13.07;5.17;;;;;;;24.39;41.10;100891.08;124095;1102;104169;-73
2023/10/04 11:13:28;;;;;;;16.33;5.63;;;;;;;24.41;41.33;100882.08;124100;1102;104833;-76
2023/10/04 11:16:01;;;;;;;;;;;;;;;24.41;40.17;100889.25;124270;1102;104198;-75
2023/10/04 11:18:35;;;;;;;17.07;5.93;;;;;;;24.41;40.68;100886.56;124129;1102;107429;-75
2023/10/04 11:21:06;;;;;;;;;;;;;;;24.39;40.02;100891.08;124176;1102;104280;-73
2023/10/04 11:23:38;;;;;;;17.40;5.60;;;;;;;24.41;40.81;100886.56;124160;1102;104190;-73
2023/10/04 11:26:12;;;;;;;14.53;5.57;;;;;;;24.45;40.76;100882.94;124169;1102;104245;-75
2023/10/04 11:28:46;;;;;;;13.77;5.70;;;;;;;24.51;41.12;100879.25;124268;1100;104173;-76
2023/10/04 11:31:18;;;;;;;14.68;5.90;;;;;;;24.61;41.17;100883.61;124138;1102;104054;-75
2023/10/04 11:33:57;;;;;;;15.77;5.67;;;;;;;24.66;41.27;100884.41;124149;1101;104210;-75
2023/10/04 11:36:30;;;;;;;12.93;5.70;;;;;;;24.72;40.87;100881.63;124056;1102;104255;-74
2023/10/04 11:39:07;;;;;;;12.67;5.03;;;;;;;24.73;40.85;100880.72;124131;1102;104181;-74